TimeEST,TemperatureF,Dew PointF,Humidity,Sea Level PressureIn,VisibilityMPH,Wind Direction,Wind SpeedMPH,Gust SpeedMPH,PrecipitationIn,Events,Conditions,WindDirDegrees,DateUTC
12:53 AM,57.0,53.1,87,30.06,10.0,WSW,3.5,-,0.00,,Overcast,250,2013-02-06 05:53:00
1:53 AM,57.0,53.1,87,30.06,10.0,Calm,Calm,-,0.00,,Overcast,0,2013-02-06 06:53:00
2:53 AM,57.9,52.0,81,30.06,10.0,WSW,3.5,-,N/A,,Overcast,240,2013-02-06 07:53:00
3:53 AM,57.0,52.0,83,30.07,10.0,WSW,3.5,-,N/A,,Overcast,250,2013-02-06 08:53:00
4:53 AM,57.9,51.1,78,30.09,10.0,WSW,4.6,-,N/A,,Overcast,240,2013-02-06 09:53:00
5:53 AM,57.9,50.0,75,30.09,10.0,WSW,3.5,-,N/A,,Overcast,250,2013-02-06 10:53:00
6:53 AM,57.0,51.1,81,30.11,10.0,SW,3.5,-,N/A,,Overcast,230,2013-02-06 11:53:00
7:53 AM,57.9,52.0,81,30.14,10.0,Calm,Calm,-,N/A,,Overcast,0,2013-02-06 12:53:00
8:53 AM,61.0,51.1,70,30.16,10.0,Calm,Calm,-,N/A,,Overcast,0,2013-02-06 13:53:00
9:53 AM,64.0,50.0,60,30.17,10.0,Calm,Calm,-,N/A,,Overcast,0,2013-02-06 14:53:00
10:53 AM,64.0,53.1,67,30.18,10.0,SW,4.6,-,N/A,,Overcast,220,2013-02-06 15:53:00
11:53 AM,69.1,51.1,53,30.16,10.0,Variable,3.5,-,N/A,,Clear,0,2013-02-06 16:53:00
12:53 PM,70.0,52.0,53,30.14,10.0,ESE,6.9,-,N/A,,Clear,110,2013-02-06 17:53:00
1:53 PM,66.0,52.0,60,30.13,10.0,East,9.2,-,N/A,,Scattered Clouds,100,2013-02-06 18:53:00
2:53 PM,64.9,53.1,65,30.12,10.0,East,9.2,-,N/A,,Overcast,90,2013-02-06 19:53:00
3:53 PM,63.0,54.0,72,30.12,10.0,ESE,9.2,-,N/A,,Overcast,120,2013-02-06 20:53:00
4:53 PM,63.0,52.0,67,30.12,10.0,ESE,6.9,-,N/A,,Overcast,120,2013-02-06 21:53:00
5:53 PM,63.0,51.1,65,30.12,10.0,ESE,5.8,-,N/A,,Overcast,120,2013-02-06 22:53:00
6:53 PM,62.1,54.0,75,30.13,10.0,ESE,4.6,-,N/A,,Overcast,110,2013-02-06 23:53:00
7:53 PM,60.1,55.0,83,30.13,10.0,ESE,5.8,-,N/A,,Mostly Cloudy,110,2013-02-07 00:53:00
8:53 PM,61.0,54.0,78,30.14,10.0,ESE,5.8,-,N/A,,Overcast,120,2013-02-07 01:53:00
9:53 PM,61.0,54.0,78,30.15,10.0,ESE,4.6,-,N/A,,Overcast,120,2013-02-07 02:53:00
10:53 PM,61.0,53.1,75,30.15,10.0,ESE,3.5,-,N/A,,Overcast,120,2013-02-07 03:53:00
11:53 PM,61.0,54.0,78,30.14,10.0,East,3.5,-,N/A,,Overcast,90,2013-02-07 04:53:00